Sanya Phoenix International Airport
ZJSY : now visible

Airfield :











YOU CAN JOIN US ON...

 
LOGIN :

Register | Disclaimer

   EN    FR    IT 

 









Legend :    VFR   Marginal VFR   IFR   Intensive IFR   Very Intensive IFR
Visi :
Ceiling :
>= 8 km
>= 3000ft
5 to 8 km
1000 to 3000 ft
1500m to 5 km
500 to 1000 ft
800 to 1500m
200 to 500 ft
< 800m
< 200 ft
Symbols :   Thunderstorms  Fog  Heavy snow  Heavy precipitations  Wind > 20 kt






- Airport Elevation : 92 ft
- IATA code : SYX


ZJSY - Sanya Phoenix International

CURRENT METAR :
  • 220000Z 09003MPS 9999 SCT015 SCT020 24/21 Q1015 NOSIG

EXPIRED METARs :
  • 212300Z 09003MPS CAVOK 23/20 Q1014 NOSIG
  • 212200Z 10002MPS 9999 FEW020 23/21 Q1013 NOSIG
  • 212100Z 09003MPS CAVOK 22/20 Q1013 NOSIG
  • 212000Z 09002MPS 9999 SCT020 SCT040 23/21 Q1012 NOSIG
  • 211900Z 08003MPS 9999 SCT020 23/21 Q1012 NOSIG

TAF TAF ZJSY
Valid from the 22 at 00:00 until the 23 at 00:00 UTC


212102Z 2200/2224 10004MPS 9999 FEW020 TX30/2206Z TN22/2221Z
ZJSA FIR / Asia



MET'MAP, your aeronautical weather chart ! - Copyright ORBIFLY December 2007 - Disclaimer

ORBIFLY MET'MAP TEAM :

Programming & Development : Alexandra Zaïnal
Original concept : Baudouin d'Aumeries
Technical & hardware support : Manuel Goepfert
Assistance : Marc-Olivier Méhu




SOURCES & CREDITS :

   NOAA       Earth
Advisory